createdAt,value
2017-11-13T00:00:52.434Z,0
2017-11-13T00:02:05.203Z,0
2017-11-13T00:03:18.026Z,0
2017-11-13T00:04:31.391Z,0
2017-11-13T00:05:44.193Z,0
2017-11-13T00:06:57.569Z,0
2017-11-13T00:08:10.934Z,0
2017-11-13T00:09:24.277Z,0
2017-11-13T00:10:37.108Z,0
2017-11-13T00:11:49.350Z,0
2017-11-13T00:13:02.118Z,0
2017-11-13T00:14:14.949Z,0
2017-11-13T00:15:27.719Z,0
2017-11-13T00:16:41.113Z,0
2017-11-13T00:17:53.902Z,0
2017-11-13T00:19:06.715Z,0
2017-11-13T00:20:20.072Z,0
2017-11-13T00:21:32.899Z,0
2017-11-13T00:22:46.219Z,0
2017-11-13T00:23:59.545Z,0
2017-11-13T00:25:11.273Z,0
2017-11-13T00:26:24.063Z,0
2017-11-13T00:27:36.363Z,0
2017-11-13T00:28:49.168Z,0
2017-11-13T00:30:02.701Z,0
2017-11-13T00:31:16.028Z,0
2017-11-13T00:32:29.343Z,0
2017-11-13T00:33:42.718Z,0
2017-11-13T00:34:56.081Z,0
2017-11-13T00:36:09.445Z,0
2017-11-13T00:37:22.751Z,0
2017-11-13T00:38:36.129Z,0
2017-11-13T00:39:48.904Z,0
2017-11-13T00:41:01.778Z,0
2017-11-13T00:42:14.035Z,0
2017-11-13T00:43:27.402Z,0
2017-11-13T00:44:40.132Z,0
2017-11-13T00:45:53.441Z,0
2017-11-13T00:47:06.775Z,0
2017-11-13T00:48:20.086Z,0
2017-11-13T00:49:32.884Z,0
2017-11-13T00:50:45.652Z,0
2017-11-13T00:51:58.988Z,0
2017-11-13T00:53:11.797Z,0
2017-11-13T00:54:25.137Z,0
2017-11-13T00:55:38.464Z,0
2017-11-13T00:56:52.288Z,0
2017-11-13T00:58:05.619Z,0
2017-11-13T00:59:17.921Z,0
2017-11-13T01:00:31.302Z,0
2017-11-13T01:01:44.117Z,0
2017-11-13T01:02:57.459Z,0
2017-11-13T01:04:10.773Z,0
2017-11-13T01:05:24.103Z,0
2017-11-13T01:06:37.387Z,0
2017-11-13T01:07:50.736Z,0
2017-11-13T01:09:04.049Z,0
2017-11-13T01:10:16.877Z,0
2017-11-13T01:11:30.237Z,0
2017-11-13T01:12:43.579Z,0
2017-11-13T01:13:56.349Z,0
2017-11-13T01:15:09.176Z,0
2017-11-13T01:16:22.943Z,0
2017-11-13T01:17:35.754Z,0
2017-11-13T01:18:49.077Z,0
2017-11-13T01:20:01.893Z,0
2017-11-13T01:21:14.715Z,0
2017-11-13T01:22:33.126Z,0
2017-11-13T01:23:45.417Z,0
2017-11-13T01:24:58.733Z,0
2017-11-13T01:26:12.020Z,0
2017-11-13T01:27:25.351Z,0
2017-11-13T01:28:38.112Z,0
2017-11-13T01:29:50.914Z,0
2017-11-13T01:31:04.225Z,0
2017-11-13T01:32:16.982Z,0
2017-11-13T01:33:30.331Z,0
2017-11-13T01:34:43.659Z,0
2017-11-13T01:35:57.242Z,0
2017-11-13T01:37:10.601Z,0
2017-11-13T01:38:23.927Z,0
2017-11-13T01:39:36.175Z,0
2017-11-13T01:40:49.487Z,0
2017-11-13T01:42:02.862Z,0
2017-11-13T01:43:16.152Z,0
2017-11-13T01:44:29.517Z,0
2017-11-13T01:45:41.790Z,0
2017-11-13T01:46:55.201Z,0
2017-11-13T01:48:08.014Z,0
2017-11-13T01:49:21.309Z,0
2017-11-13T01:50:34.633Z,0
2017-11-13T01:51:47.949Z,0
2017-11-13T01:53:01.262Z,0
2017-11-13T01:54:14.029Z,0
2017-11-13T01:55:27.031Z,0
2017-11-13T01:56:40.353Z,0
2017-11-13T01:57:53.156Z,0
2017-11-13T01:59:06.539Z,0
2017-11-13T02:00:19.304Z,0
2017-11-13T02:01:32.607Z,0
2017-11-13T02:02:45.925Z,0
2017-11-13T02:03:59.232Z,0
2017-11-13T02:05:11.998Z,0
2017-11-13T02:06:25.299Z,0
2017-11-13T02:07:38.616Z,0
2017-11-13T02:08:51.917Z,0
2017-11-13T02:10:05.263Z,0
2017-11-13T02:11:18.578Z,0
2017-11-13T02:12:31.343Z,0
2017-11-13T02:13:44.632Z,0
2017-11-13T02:14:57.962Z,0
2017-11-13T02:16:10.764Z,0
2017-11-13T02:17:24.120Z,0
2017-11-13T02:18:37.458Z,0
2017-11-13T02:19:50.222Z,0
2017-11-13T02:21:03.572Z,0
2017-11-13T02:22:16.368Z,0
2017-11-13T02:23:29.153Z,0
2017-11-13T02:24:42.451Z,0
2017-11-13T02:25:55.219Z,0
2017-11-13T02:27:08.566Z,0
2017-11-13T02:28:21.410Z,0
2017-11-13T02:29:34.234Z,0
2017-11-13T02:30:47.019Z,0
2017-11-13T02:32:00.355Z,0
2017-11-13T02:33:13.729Z,0
2017-11-13T02:34:27.081Z,0
2017-11-13T02:35:40.405Z,0
2017-11-13T02:36:53.764Z,0
2017-11-13T02:38:07.085Z,0
2017-11-13T02:39:20.425Z,0
2017-11-13T02:40:33.778Z,0
2017-11-13T02:41:46.551Z,0
2017-11-13T02:42:59.919Z,0
2017-11-13T02:44:12.736Z,0
2017-11-13T02:45:25.623Z,0
2017-11-13T02:46:38.966Z,0
2017-11-13T02:47:52.287Z,0
2017-11-13T02:49:06.278Z,0
2017-11-13T02:50:19.615Z,0
2017-11-13T02:51:32.913Z,0
2017-11-13T02:52:46.301Z,0
2017-11-13T02:53:59.604Z,0
2017-11-13T02:55:12.392Z,0
2017-11-13T02:56:25.744Z,0
2017-11-13T02:57:39.094Z,0
2017-11-13T02:58:52.641Z,0
2017-11-13T03:00:05.961Z,0
2017-11-13T03:01:19.518Z,0
2017-11-13T03:02:32.492Z,0
2017-11-13T03:03:44.716Z,0
2017-11-13T03:04:58.063Z,0
2017-11-13T03:06:10.317Z,0
2017-11-13T03:07:23.647Z,0
2017-11-13T03:08:36.466Z,0
2017-11-13T03:09:50.013Z,0
2017-11-13T03:11:03.316Z,0
2017-11-13T03:12:15.591Z,0
2017-11-13T03:13:28.970Z,0
2017-11-13T03:14:41.419Z,0
2017-11-13T03:15:54.779Z,0
2017-11-13T03:17:08.049Z,0
2017-11-13T03:18:20.846Z,0
2017-11-13T03:19:34.230Z,0
2017-11-13T03:20:47.564Z,0
2017-11-13T03:22:01.124Z,0
2017-11-13T03:23:14.468Z,0
2017-11-13T03:24:27.300Z,0
2017-11-13T03:25:39.592Z,0
2017-11-13T03:26:52.912Z,0
2017-11-13T03:28:06.259Z,0
2017-11-13T03:29:19.543Z,0
2017-11-13T03:30:32.866Z,0
2017-11-13T03:31:45.640Z,0
2017-11-13T03:32:58.930Z,0
2017-11-13T03:34:12.518Z,0
2017-11-13T03:35:25.856Z,0
2017-11-13T03:36:39.215Z,0
2017-11-13T03:37:52.585Z,0
2017-11-13T03:39:05.903Z,0
2017-11-13T03:40:18.702Z,0
2017-11-13T03:41:31.552Z,0
2017-11-13T03:42:44.888Z,0
2017-11-13T03:43:58.215Z,0
2017-11-13T03:45:11.034Z,0
2017-11-13T03:46:24.380Z,0
2017-11-13T03:47:37.959Z,0
2017-11-13T03:48:51.291Z,0
2017-11-13T03:50:04.608Z,0
2017-11-13T03:51:17.930Z,0
2017-11-13T03:52:31.269Z,0
2017-11-13T03:53:42.994Z,0
2017-11-13T03:54:56.371Z,0
2017-11-13T03:56:09.174Z,0
2017-11-13T03:57:21.989Z,0
2017-11-13T03:58:34.846Z,0
2017-11-13T03:59:48.151Z,0
2017-11-13T04:01:01.465Z,0
2017-11-13T04:02:14.791Z,0
2017-11-13T04:03:28.108Z,0
2017-11-13T04:04:41.438Z,0
2017-11-13T04:05:54.237Z,0
2017-11-13T04:07:07.566Z,0
2017-11-13T04:08:20.918Z,0
2017-11-13T04:09:33.703Z,0
2017-11-13T04:10:47.033Z,0
2017-11-13T04:12:00.379Z,0
2017-11-13T04:13:13.724Z,0
2017-11-13T04:14:27.056Z,0
2017-11-13T04:15:40.366Z,0
2017-11-13T04:16:53.164Z,0
2017-11-13T04:18:06.481Z,0
2017-11-13T04:19:19.365Z,0
2017-11-13T04:20:32.704Z,0
2017-11-13T04:21:46.058Z,0
2017-11-13T04:22:59.384Z,0
2017-11-13T04:24:12.725Z,0
2017-11-13T04:25:26.065Z,0
2017-11-13T04:26:39.409Z,0
2017-11-13T04:27:52.760Z,0
2017-11-13T04:29:06.060Z,0
2017-11-13T04:30:19.337Z,0
2017-11-13T04:31:32.662Z,0
2017-11-13T04:32:45.508Z,0
2017-11-13T04:33:57.776Z,0
2017-11-13T04:35:10.628Z,0
2017-11-13T04:36:23.940Z,0
2017-11-13T04:37:37.286Z,0
2017-11-13T04:38:50.617Z,0
2017-11-13T04:40:03.408Z,0
2017-11-13T04:41:16.180Z,0
2017-11-13T04:42:29.514Z,0
2017-11-13T04:43:42.848Z,0
2017-11-13T04:44:56.177Z,0
2017-11-13T04:46:09.474Z,0
2017-11-13T04:47:22.798Z,0
2017-11-13T04:48:35.073Z,0
2017-11-13T04:49:48.404Z,0
2017-11-13T04:51:01.749Z,0
2017-11-13T04:52:14.543Z,0
2017-11-13T04:53:26.800Z,0
2017-11-13T04:54:39.578Z,0
2017-11-13T04:55:52.942Z,0
2017-11-13T04:57:06.245Z,0
2017-11-13T04:58:19.581Z,0
2017-11-13T04:59:32.892Z,0
2017-11-13T05:00:46.252Z,0
2017-11-13T05:01:59.020Z,0
2017-11-13T05:03:12.365Z,0
2017-11-13T05:04:25.759Z,0
2017-11-13T05:05:38.548Z,0
2017-11-13T05:06:51.859Z,0
2017-11-13T05:08:05.208Z,0
2017-11-13T05:09:18.534Z,0
2017-11-13T05:10:31.870Z,0
2017-11-13T05:11:44.698Z,0
2017-11-13T05:12:57.990Z,0
2017-11-13T05:14:11.314Z,0
2017-11-13T05:15:24.645Z,0
2017-11-13T05:16:37.013Z,0
2017-11-13T05:17:50.360Z,0
2017-11-13T05:19:03.149Z,0
2017-11-13T05:20:16.496Z,0
2017-11-13T05:21:29.863Z,0
2017-11-13T05:22:42.866Z,0
2017-11-13T05:23:56.188Z,0
2017-11-13T05:25:09.545Z,0
2017-11-13T05:26:22.886Z,0
2017-11-13T05:27:36.229Z,0
2017-11-13T05:28:49.595Z,0
2017-11-13T05:30:02.412Z,0
2017-11-13T05:31:15.772Z,0
2017-11-13T05:32:28.625Z,0
2017-11-13T05:33:41.950Z,0
2017-11-13T05:34:55.268Z,0
2017-11-13T05:36:08.635Z,0
2017-11-13T05:37:21.922Z,0
2017-11-13T05:38:35.907Z,0
2017-11-13T05:39:49.962Z,0
2017-11-13T05:41:03.459Z,0
2017-11-13T05:42:17.445Z,0
2017-11-13T05:43:31.454Z,0
2017-11-13T05:44:44.896Z,0
2017-11-13T05:45:58.335Z,0
2017-11-13T05:47:12.358Z,0
2017-11-13T05:48:25.786Z,0
2017-11-13T05:49:39.813Z,0
2017-11-13T05:50:53.840Z,0
2017-11-13T05:52:07.889Z,0
2017-11-13T05:53:21.346Z,0
2017-11-13T05:54:34.755Z,0
2017-11-13T05:55:48.833Z,0
2017-11-13T05:57:02.897Z,0
2017-11-13T05:58:16.941Z,0
2017-11-13T05:59:30.408Z,0
2017-11-13T06:00:43.891Z,0
2017-11-13T06:01:57.931Z,0
2017-11-13T06:03:11.403Z,0
2017-11-13T06:04:25.458Z,0
2017-11-13T06:05:39.514Z,0
2017-11-13T06:06:53.524Z,0
2017-11-13T06:08:07.563Z,0
2017-11-13T06:09:21.590Z,0
2017-11-13T06:10:35.124Z,0
2017-11-13T06:11:49.158Z,0
2017-11-13T06:13:09.458Z,0
2017-11-13T06:14:23.470Z,0
2017-11-13T06:15:36.904Z,0
2017-11-13T06:16:50.379Z,0
2017-11-13T06:18:04.400Z,0
2017-11-13T06:19:17.889Z,0
2017-11-13T06:20:31.941Z,0
2017-11-13T06:21:44.802Z,0
2017-11-13T06:22:58.789Z,0
2017-11-13T06:24:12.827Z,0
2017-11-13T06:25:27.049Z,0
2017-11-13T06:26:40.493Z,0
2017-11-13T06:27:53.949Z,0
2017-11-13T06:29:08.003Z,0
2017-11-13T06:30:22.042Z,0
2017-11-13T06:31:36.124Z,0
2017-11-13T06:32:50.151Z,0
2017-11-13T06:34:04.211Z,0
2017-11-13T06:35:18.197Z,0
2017-11-13T06:36:32.234Z,0
2017-11-13T06:37:45.108Z,0
2017-11-13T06:38:59.140Z,0
2017-11-13T06:40:13.170Z,0
2017-11-13T06:41:26.647Z,0
2017-11-13T06:42:40.130Z,0
2017-11-13T06:43:54.351Z,0
2017-11-13T06:45:08.368Z,0
2017-11-13T06:46:22.441Z,0
2017-11-13T06:47:36.503Z,0
2017-11-13T06:48:49.952Z,0
2017-11-13T06:50:04.013Z,0
2017-11-13T06:51:18.057Z,0
2017-11-13T06:52:32.086Z,0
2017-11-13T06:53:46.134Z,0
2017-11-13T06:55:00.163Z,0
2017-11-13T06:56:13.055Z,0
2017-11-13T06:57:27.071Z,0
2017-11-13T06:58:41.125Z,0
2017-11-13T06:59:55.200Z,0
2017-11-13T07:01:08.093Z,0
2017-11-13T07:02:21.525Z,0
2017-11-13T07:03:35.595Z,0
2017-11-13T07:04:49.683Z,0
2017-11-13T07:06:03.129Z,0
2017-11-13T07:07:17.185Z,0
2017-11-13T07:08:31.220Z,0
2017-11-13T07:09:44.096Z,0
2017-11-13T07:10:57.584Z,0
2017-11-13T07:12:11.638Z,0
2017-11-13T07:13:25.048Z,0
2017-11-13T07:14:39.124Z,0
2017-11-13T07:15:53.671Z,0
2017-11-13T07:17:07.165Z,0
2017-11-13T07:18:21.219Z,0
2017-11-13T07:19:34.639Z,0
2017-11-13T07:20:48.640Z,0
2017-11-13T07:22:04.833Z,0
2017-11-13T07:23:18.533Z,0
2017-11-13T07:24:31.381Z,0
2017-11-13T07:25:45.461Z,0
2017-11-13T07:26:58.901Z,0
2017-11-13T07:28:12.946Z,0
2017-11-13T07:29:26.419Z,0
2017-11-13T07:30:39.839Z,0
2017-11-13T07:31:53.869Z,0
2017-11-13T07:33:07.913Z,0
2017-11-13T07:34:21.981Z,0
2017-11-13T07:35:36.055Z,0
2017-11-13T07:36:50.081Z,0
2017-11-13T07:38:03.510Z,0
2017-11-13T07:39:17.548Z,0
2017-11-13T07:40:31.589Z,0
2017-11-13T07:41:45.624Z,0
2017-11-13T07:42:59.669Z,0
2017-11-13T07:44:13.699Z,0
2017-11-13T07:45:27.123Z,0
2017-11-13T07:46:40.569Z,0
2017-11-13T07:47:54.568Z,0
2017-11-13T07:49:08.010Z,0
2017-11-13T07:50:20.894Z,0
2017-11-13T07:51:34.917Z,0
2017-11-13T07:52:48.955Z,0
2017-11-13T07:54:02.963Z,0
2017-11-13T07:55:16.983Z,0
2017-11-13T07:56:31.069Z,0
2017-11-13T07:57:46.029Z,0
2017-11-13T07:59:00.102Z,0
2017-11-13T08:00:14.133Z,0
2017-11-13T08:01:28.209Z,0
2017-11-13T08:02:41.657Z,0
2017-11-13T08:03:55.680Z,0
2017-11-13T08:05:09.739Z,0
2017-11-13T08:06:23.802Z,0
2017-11-13T08:07:37.859Z,5
2017-11-13T08:08:50.697Z,5
2017-11-13T08:10:04.962Z,5
2017-11-13T08:11:18.614Z,5
2017-11-13T08:12:32.620Z,10
2017-11-13T08:13:46.063Z,10
2017-11-13T08:15:00.135Z,15
2017-11-13T08:16:14.187Z,15
2017-11-13T08:17:28.236Z,20
2017-11-13T08:18:42.279Z,20
2017-11-13T08:19:56.307Z,25
2017-11-13T08:21:10.382Z,30
2017-11-13T08:22:23.844Z,35
2017-11-13T08:23:37.267Z,40
2017-11-13T08:24:51.332Z,45
2017-11-13T08:26:05.386Z,50
2017-11-13T08:27:18.860Z,55
2017-11-13T08:28:30.528Z,65
2017-11-13T08:29:44.528Z,70
2017-11-13T08:30:58.624Z,75
2017-11-13T08:32:12.065Z,80
2017-11-13T08:33:26.126Z,80
2017-11-13T08:34:40.198Z,90
2017-11-13T08:35:53.685Z,105
2017-11-13T08:37:07.730Z,115
2017-11-13T08:38:21.806Z,180
2017-11-13T08:39:35.257Z,145
2017-11-13T08:40:48.679Z,230
2017-11-13T08:42:02.739Z,175
2017-11-13T08:43:15.574Z,215
2017-11-13T08:44:29.518Z,255
2017-11-13T08:45:42.626Z,180
2017-11-13T08:47:00.139Z,170
2017-11-13T08:48:13.794Z,175
2017-11-13T08:49:27.784Z,175
2017-11-13T08:50:41.808Z,195
2017-11-13T08:51:55.846Z,190
2017-11-13T08:53:08.735Z,195
2017-11-13T08:54:22.776Z,210
2017-11-13T08:55:35.657Z,220
2017-11-13T08:56:49.701Z,230
2017-11-13T08:58:03.754Z,235
2017-11-13T08:59:16.597Z,240
2017-11-13T09:00:30.634Z,245
2017-11-13T09:01:43.555Z,390
2017-11-13T09:02:57.017Z,395
2017-11-13T09:04:10.474Z,265
2017-11-13T09:05:23.938Z,265
2017-11-13T09:06:37.971Z,580
2017-11-13T09:07:51.953Z,295
2017-11-13T09:09:05.986Z,320
2017-11-13T09:10:19.975Z,560
2017-11-13T09:11:33.402Z,310
2017-11-13T09:12:47.440Z,280
2017-11-13T09:14:01.494Z,720
2017-11-13T09:15:15.546Z,435
2017-11-13T09:16:29.562Z,300
2017-11-13T09:17:43.573Z,285
2017-11-13T09:18:57.638Z,290
2017-11-13T09:20:11.642Z,305
2017-11-13T09:21:25.710Z,445
2017-11-13T09:22:39.808Z,900
2017-11-13T09:23:53.913Z,400
2017-11-13T09:25:07.917Z,360
2017-11-13T09:26:21.974Z,400
2017-11-13T09:27:35.453Z,380
2017-11-13T09:28:48.936Z,370
2017-11-13T09:30:02.936Z,370
2017-11-13T09:31:16.953Z,925
2017-11-13T09:32:30.407Z,385
2017-11-13T09:33:44.699Z,375
2017-11-13T09:34:58.722Z,395
2017-11-13T09:36:12.160Z,445
2017-11-13T09:37:25.580Z,1120
2017-11-13T09:38:39.679Z,530
2017-11-13T09:39:53.182Z,635
2017-11-13T09:41:06.686Z,1110
2017-11-13T09:42:20.731Z,1065
2017-11-13T09:43:34.200Z,945
2017-11-13T09:44:47.652Z,630
2017-11-13T09:46:01.705Z,680
2017-11-13T09:47:15.159Z,1540
2017-11-13T09:48:29.185Z,880
2017-11-13T09:49:42.864Z,1560
2017-11-13T09:50:56.392Z,1565
2017-11-13T09:52:09.925Z,1655
2017-11-13T09:53:23.952Z,1510
2017-11-13T09:54:38.073Z,1375
2017-11-13T09:55:52.149Z,950
2017-11-13T09:57:06.175Z,730
2017-11-13T09:58:20.270Z,710
2017-11-13T09:59:34.299Z,720
2017-11-13T10:00:48.290Z,740
2017-11-13T10:02:01.962Z,735
2017-11-13T10:03:16.006Z,745
2017-11-13T10:04:30.059Z,845
2017-11-13T10:05:44.106Z,1710
2017-11-13T10:06:57.577Z,1995
2017-11-13T10:08:11.660Z,1260
2017-11-13T10:09:25.726Z,1490
2017-11-13T10:10:39.792Z,1425
2017-11-13T10:11:53.829Z,1450
2017-11-13T10:13:07.288Z,2070
2017-11-13T10:14:21.293Z,2120
2017-11-13T10:15:34.795Z,2135
2017-11-13T10:16:48.244Z,2150
2017-11-13T10:18:02.319Z,2035
2017-11-13T10:19:15.753Z,1930
2017-11-13T10:20:28.641Z,1900
2017-11-13T10:21:42.697Z,1975
2017-11-13T10:22:56.752Z,2000
2017-11-13T10:24:10.791Z,1860
2017-11-13T10:25:24.821Z,610
2017-11-13T10:26:38.842Z,965
2017-11-13T10:27:52.866Z,1850
2017-11-13T10:29:06.910Z,1555
2017-11-13T10:30:20.996Z,1670
2017-11-13T10:31:35.022Z,1725
2017-11-13T10:32:49.115Z,1645
2017-11-13T10:34:02.538Z,1490
2017-11-13T10:35:15.998Z,1415
2017-11-13T10:36:30.063Z,1460
2017-11-13T10:37:44.112Z,1465
2017-11-13T10:38:57.561Z,1445
2017-11-13T10:40:11.793Z,1415
2017-11-13T10:41:25.854Z,1430
2017-11-13T10:42:39.945Z,1395
2017-11-13T10:43:53.428Z,1315
2017-11-13T10:45:07.502Z,1295
2017-11-13T10:46:21.560Z,1295
2017-11-13T10:47:35.039Z,1265
2017-11-13T10:48:48.215Z,1220
2017-11-13T10:50:01.722Z,1230
2017-11-13T10:51:15.742Z,1280
2017-11-13T10:52:29.185Z,1350
2017-11-13T10:53:43.277Z,1425
2017-11-13T10:54:57.453Z,1380
2017-11-13T10:56:11.572Z,1300
2017-11-13T10:57:25.830Z,1335
2017-11-13T10:58:39.903Z,1320
2017-11-13T10:59:53.987Z,915
2017-11-13T11:01:08.075Z,900
2017-11-13T11:02:22.155Z,1165
2017-11-13T11:03:35.643Z,830
2017-11-13T11:04:47.957Z,870
2017-11-13T11:06:02.051Z,875
2017-11-13T11:07:16.121Z,875
2017-11-13T11:08:30.215Z,1160
2017-11-13T11:09:44.279Z,1455
2017-11-13T11:10:57.746Z,1590
2017-11-13T11:12:11.798Z,1640
2017-11-13T11:13:25.880Z,1640
2017-11-13T11:14:39.919Z,1570
2017-11-13T11:15:52.804Z,1600
2017-11-13T11:17:06.913Z,1640
2017-11-13T11:18:19.777Z,1715
2017-11-13T11:19:33.828Z,1735
2017-11-13T11:20:48.809Z,1775
2017-11-13T11:22:03.088Z,1590
2017-11-13T11:23:17.123Z,1635
2017-11-13T11:24:30.545Z,1565
2017-11-13T11:25:43.974Z,1520
2017-11-13T11:26:57.488Z,1515
2017-11-13T11:28:11.735Z,1555
2017-11-13T11:29:25.819Z,1570
2017-11-13T11:30:39.910Z,1435
2017-11-13T11:31:53.964Z,1415
2017-11-13T11:33:08.042Z,1405
2017-11-13T11:34:22.074Z,1380
2017-11-13T11:35:37.222Z,1415
2017-11-13T11:37:09.854Z,1475
2017-11-13T11:38:23.301Z,1485
2017-11-13T11:39:36.841Z,1350
2017-11-13T11:40:50.348Z,1350
2017-11-13T11:42:04.500Z,1365
2017-11-13T11:43:18.021Z,1435
2017-11-13T11:44:31.504Z,1450
2017-11-13T11:45:45.576Z,1450
2017-11-13T11:46:59.611Z,1415
2017-11-13T11:48:13.834Z,1395
2017-11-13T11:49:27.915Z,1400
2017-11-13T11:50:42.005Z,1395
2017-11-13T11:51:56.059Z,1390
2017-11-13T11:53:08.921Z,1400
2017-11-13T11:54:22.951Z,1420
2017-11-13T11:55:37.003Z,1390
2017-11-13T11:56:50.484Z,1400
2017-11-13T11:58:03.378Z,1375
2017-11-13T11:59:17.393Z,1380
2017-11-13T12:00:30.840Z,1400
2017-11-13T12:01:44.304Z,1430
2017-11-13T12:02:57.249Z,1415
2017-11-13T12:04:10.946Z,1430
2017-11-13T12:05:25.816Z,1445
2017-11-13T12:06:39.247Z,1485
2017-11-13T12:07:54.106Z,1515
2017-11-13T12:09:11.899Z,1520
2017-11-13T12:10:26.158Z,1550
2017-11-13T12:11:43.145Z,1565
2017-11-13T12:12:57.960Z,1610
2017-11-13T12:14:11.445Z,1660
2017-11-13T12:15:25.635Z,1675
2017-11-13T12:16:39.213Z,1775
2017-11-13T12:17:53.272Z,1895
2017-11-13T12:19:06.771Z,2090
2017-11-13T12:20:20.854Z,2130
2017-11-13T12:21:34.495Z,2100
2017-11-13T12:22:48.526Z,2080
2017-11-13T12:24:02.607Z,2045
2017-11-13T12:25:16.096Z,1870
2017-11-13T12:26:30.998Z,1730
2017-11-13T12:27:45.032Z,1670
2017-11-13T12:28:59.072Z,1645
2017-11-13T12:30:13.964Z,1630
2017-11-13T12:31:27.446Z,1665
2017-11-13T12:32:40.919Z,1665
2017-11-13T12:33:55.972Z,1685
2017-11-13T12:35:09.525Z,1665
2017-11-13T12:36:23.538Z,1675
2017-11-13T12:37:38.436Z,1675
2017-11-13T12:38:51.324Z,1670
2017-11-13T12:40:05.578Z,1655
2017-11-13T12:41:19.554Z,1670
2017-11-13T12:42:33.632Z,1700
2017-11-13T12:43:48.436Z,1900
2017-11-13T12:45:01.908Z,1905
2017-11-13T12:46:15.655Z,1735
2017-11-13T12:47:29.156Z,1665
2017-11-13T12:48:43.228Z,1685
2017-11-13T12:49:57.293Z,1710
2017-11-13T12:51:11.546Z,1775
2017-11-13T12:52:25.607Z,1785
2017-11-13T12:53:39.126Z,1885
2017-11-13T12:54:52.597Z,2145
2017-11-13T12:56:06.036Z,2350
2017-11-13T12:57:19.493Z,2160
2017-11-13T12:58:32.385Z,1925
2017-11-13T12:59:45.804Z,1865
2017-11-13T13:00:59.373Z,1805
2017-11-13T13:02:12.797Z,1780
2017-11-13T13:03:25.699Z,1785
2017-11-13T13:04:39.981Z,1780
2017-11-13T13:05:53.484Z,1750
2017-11-13T13:07:07.553Z,1725
2017-11-13T13:08:21.633Z,1725
2017-11-13T13:09:35.683Z,1715
2017-11-13T13:10:48.574Z,1695
2017-11-13T13:12:02.128Z,1690
2017-11-13T13:13:16.191Z,1675
2017-11-13T13:14:29.687Z,1675
2017-11-13T13:15:43.782Z,1675
2017-11-13T13:16:57.258Z,1680
2017-11-13T13:18:11.322Z,1680
2017-11-13T13:19:24.783Z,1695
2017-11-13T13:20:38.812Z,1730
2017-11-13T13:21:52.906Z,1705
2017-11-13T13:23:06.940Z,1705
2017-11-13T13:24:20.981Z,1730
2017-11-13T13:25:35.091Z,1750
2017-11-13T13:26:49.127Z,1770
2017-11-13T13:28:03.168Z,1740
2017-11-13T13:29:17.208Z,1765
2017-11-13T13:30:30.714Z,1795
2017-11-13T13:31:44.855Z,1825
2017-11-13T13:32:57.756Z,1905
2017-11-13T13:34:11.825Z,1985
2017-11-13T13:35:25.918Z,2070
2017-11-13T13:36:39.403Z,2215
2017-11-13T13:37:52.855Z,2000
2017-11-13T13:39:06.333Z,2200
2017-11-13T13:40:20.383Z,2420
2017-11-13T13:41:33.848Z,2290
2017-11-13T13:42:47.900Z,2090
2017-11-13T13:44:01.962Z,1995
2017-11-13T13:45:15.430Z,1935
2017-11-13T13:46:29.523Z,2030
2017-11-13T13:47:42.386Z,2200
2017-11-13T13:48:55.820Z,2170
2017-11-13T13:50:09.841Z,2040
2017-11-13T13:51:23.251Z,2025
2017-11-13T13:52:37.312Z,2115
2017-11-13T13:53:51.338Z,2145
2017-11-13T13:55:05.415Z,2030
2017-11-13T13:56:18.904Z,2040
2017-11-13T13:57:32.314Z,2090
2017-11-13T13:58:45.678Z,2030
2017-11-13T13:59:59.007Z,2060
2017-11-13T14:01:11.793Z,2130
2017-11-13T14:02:25.153Z,2145
2017-11-13T14:03:37.432Z,2105
2017-11-13T14:04:50.275Z,2160
2017-11-13T14:06:02.560Z,2355
2017-11-13T14:07:15.890Z,2430
2017-11-13T14:08:29.232Z,2630
2017-11-13T14:09:42.051Z,2885
2017-11-13T14:10:55.498Z,2985
2017-11-13T14:12:08.908Z,2990
2017-11-13T14:13:21.723Z,3155
2017-11-13T14:14:35.046Z,3275
2017-11-13T14:15:47.853Z,3480
2017-11-13T14:17:01.182Z,3385
2017-11-13T14:18:13.964Z,3330
2017-11-13T14:19:27.264Z,3660
2017-11-13T14:20:40.044Z,3755
2017-11-13T14:21:52.867Z,3855
2017-11-13T14:23:06.225Z,3695
2017-11-13T14:24:19.027Z,3395
2017-11-13T14:25:31.930Z,3705
2017-11-13T14:26:45.912Z,4010
2017-11-13T14:27:58.247Z,3905
2017-11-13T14:29:11.662Z,4010
2017-11-13T14:30:24.449Z,4235
2017-11-13T14:31:37.804Z,4030
2017-11-13T14:32:50.072Z,4050
2017-11-13T14:34:02.889Z,3925
2017-11-13T14:35:15.688Z,4135
2017-11-13T14:36:29.012Z,3950
2017-11-13T14:37:41.803Z,3930
2017-11-13T14:38:58.684Z,3915
2017-11-13T14:40:11.495Z,3850
2017-11-13T14:41:24.321Z,3880
2017-11-13T14:42:36.025Z,3820
2017-11-13T14:43:48.896Z,3730
2017-11-13T14:45:02.241Z,3860
2017-11-13T14:46:15.026Z,4020
2017-11-13T14:47:29.174Z,4295
2017-11-13T14:48:42.013Z,4330
2017-11-13T14:49:55.408Z,4295
2017-11-13T14:51:08.764Z,4200
2017-11-13T14:52:22.136Z,4255
2017-11-13T14:53:34.375Z,4275
2017-11-13T14:54:46.645Z,4315
2017-11-13T14:55:59.997Z,4170
2017-11-13T14:57:13.310Z,4250
2017-11-13T14:58:26.139Z,4095
2017-11-13T14:59:39.555Z,3835
2017-11-13T15:00:52.900Z,3800
2017-11-13T15:02:05.749Z,3940
2017-11-13T15:03:19.120Z,4140
2017-11-13T15:04:33.076Z,4300
2017-11-13T15:05:47.061Z,4350
2017-11-13T15:07:00.470Z,4010
2017-11-13T15:08:12.751Z,4215
2017-11-13T15:09:25.045Z,4280
2017-11-13T15:10:38.435Z,3905
2017-11-13T15:11:51.803Z,3715
2017-11-13T15:13:05.686Z,3815
2017-11-13T15:14:19.064Z,3745
2017-11-13T15:15:31.324Z,3745
2017-11-13T15:16:44.698Z,3970
2017-11-13T15:17:57.500Z,3965
2017-11-13T15:19:10.859Z,4080
2017-11-13T15:20:23.707Z,4115
2017-11-13T15:21:37.079Z,4255
2017-11-13T15:22:49.862Z,4195
2017-11-13T15:24:03.195Z,3940
2017-11-13T15:25:16.540Z,3790
2017-11-13T15:26:29.856Z,3905
2017-11-13T15:27:43.250Z,4275
2017-11-13T15:28:56.035Z,4405
2017-11-13T15:30:08.341Z,4095
2017-11-13T15:31:20.633Z,3625
2017-11-13T15:32:34.071Z,3535
2017-11-13T15:33:46.535Z,3540
2017-11-13T15:34:59.768Z,3520
2017-11-13T15:36:13.887Z,3785
2017-11-13T15:37:27.438Z,3930
2017-11-13T15:38:40.227Z,3690
2017-11-13T15:39:53.084Z,3810
2017-11-13T15:41:06.575Z,3955
2017-11-13T15:42:18.833Z,3870
2017-11-13T15:43:31.798Z,3875
2017-11-13T15:44:44.597Z,3935
2017-11-13T15:45:57.951Z,3830
2017-11-13T15:47:11.332Z,3860
2017-11-13T15:48:24.116Z,3970
2017-11-13T15:49:36.940Z,3685
2017-11-13T15:50:49.730Z,3910
2017-11-13T15:52:02.511Z,4235
2017-11-13T15:53:15.857Z,4215
2017-11-13T15:54:28.676Z,4025
2017-11-13T15:55:42.076Z,4050
2017-11-13T15:56:54.899Z,4000
2017-11-13T15:58:08.256Z,4165
2017-11-13T15:59:21.083Z,4420
2017-11-13T16:00:34.438Z,4420
2017-11-13T16:01:47.790Z,4480
2017-11-13T16:03:01.181Z,4415
2017-11-13T16:04:14.052Z,4170
2017-11-13T16:05:26.881Z,4120
2017-11-13T16:06:39.773Z,4015
2017-11-13T16:07:52.580Z,4255
2017-11-13T16:09:05.373Z,4090
2017-11-13T16:10:19.199Z,4020
2017-11-13T16:11:32.041Z,4205
2017-11-13T16:12:45.429Z,4395
2017-11-13T16:13:58.796Z,4115
2017-11-13T16:15:12.147Z,4060
2017-11-13T16:16:24.953Z,4085
2017-11-13T16:17:38.280Z,4015
2017-11-13T16:18:51.627Z,3755
2017-11-13T16:20:04.967Z,3410
2017-11-13T16:21:17.248Z,3465
2017-11-13T16:22:30.618Z,3655
2017-11-13T16:23:43.984Z,3895
2017-11-13T16:24:57.376Z,3710
2017-11-13T16:26:10.182Z,3570
2017-11-13T16:27:23.527Z,3390
2017-11-13T16:28:36.880Z,3500
2017-11-13T16:29:50.421Z,3470
2017-11-13T16:31:03.778Z,3625
2017-11-13T16:32:17.135Z,3760
2017-11-13T16:33:30.504Z,3635
2017-11-13T16:34:43.339Z,3515
2017-11-13T16:35:56.835Z,3215
2017-11-13T16:37:09.139Z,3085
2017-11-13T16:38:21.406Z,3275
2017-11-13T16:39:34.757Z,3350
2017-11-13T16:40:48.063Z,3390
2017-11-13T16:42:01.398Z,3480
2017-11-13T16:43:14.720Z,3440
2017-11-13T16:44:28.115Z,3605
2017-11-13T16:45:41.453Z,3500
2017-11-13T16:46:54.253Z,3370
2017-11-13T16:48:07.607Z,3325
2017-11-13T16:49:20.989Z,3255
2017-11-13T16:50:34.344Z,3195
2017-11-13T16:51:47.157Z,3215
2017-11-13T16:52:59.972Z,3555
2017-11-13T16:54:13.381Z,3775
2017-11-13T16:55:26.716Z,3410
2017-11-13T16:56:39.587Z,3150
2017-11-13T16:57:52.450Z,3165
2017-11-13T16:59:06.083Z,3150
2017-11-13T17:00:19.424Z,3230
2017-11-13T17:01:32.760Z,3025
2017-11-13T17:02:45.552Z,3160
2017-11-13T17:03:58.907Z,3300
2017-11-13T17:05:11.734Z,3220
2017-11-13T17:06:25.680Z,3195
2017-11-13T17:07:41.979Z,3345
2017-11-13T17:08:55.344Z,3305
2017-11-13T17:10:08.191Z,3205
2017-11-13T17:11:21.569Z,3135
2017-11-13T17:12:38.429Z,3225